Time;durP1;ratioP1;P1;durP2;ratioP2;P2;SDS_P1;SDS_P2;PMS_P1;PMS_P2;Temp;Humidity;BMP_temperature;BMP_pressure;BME280_temperature;BME280_humidity;BME280_pressure;Samples;Min_cycle;Max_cycle;Signal;HPM_P1;HPM_P2
2024/01/15 00:01:08;;;;;;;207.02;86.95;;;;;;;;;;5064832;28;20122;-86
2024/01/15 00:03:33;;;;;;;714.97;301.90;;;;;;;;;;5054022;28;20031;-86
2024/01/15 00:05:58;;;;;;;172.40;80.67;;;;;;;;;;5084323;28;20012;-86
2024/01/15 00:08:23;;;;;;;254.93;130.43;;;;;;;;;;5072724;28;20033;-87
2024/01/15 00:10:49;;;;;;;182.00;97.83;;;;;;;;;;5060826;28;20012;-86
2024/01/15 00:13:17;;;;;;;128.35;66.03;;;;;;;;;;5047638;28;20028;-85
2024/01/15 00:15:42;;;;;;;233.98;106.05;;;;;;;;;;5061094;28;20100;-86
2024/01/15 00:18:10;;;;;;;128.85;67.32;;;;;;;;;;5064627;28;20115;-86
2024/01/15 00:20:35;;;;;;;124.20;64.30;;;;;;;;;;5073224;28;20017;-84
2024/01/15 00:23:00;;;;;;;134.48;70.28;;;;;;;;;;5066172;28;20020;-86
2024/01/15 00:25:26;;;;;;;193.75;96.65;;;;;;;;;;5060234;28;20036;-86
2024/01/15 00:27:51;;;;;;;124.20;60.95;;;;;;;;;;5062303;28;20027;-84
2024/01/15 00:30:16;;;;;;;136.93;69.17;;;;;;;;;;5043463;28;20516;-85
2024/01/15 00:32:41;;;;;;;143.75;73.03;;;;;;;;;;5046282;28;20028;-86
2024/01/15 00:35:07;;;;;;;155.50;84.17;;;;;;;;;;5073023;28;20643;-86
2024/01/15 00:37:32;;;;;;;231.95;112.20;;;;;;;;;;5063333;28;20058;-86
2024/01/15 00:39:58;;;;;;;232.90;113.03;;;;;;;;;;5063234;28;20028;-86
2024/01/15 00:42:24;;;;;;;201.63;102.17;;;;;;;;;;5064972;28;20123;-86
2024/01/15 00:44:54;;;;;;;122.20;60.40;;;;;;;;;;5064897;28;20100;-85
2024/01/15 00:47:19;;;;;;;;;;;;;;;;;;5062521;28;20017;-85
2024/01/15 00:49:45;;;;;;;176.23;93.03;;;;;;;;;;5085797;28;20480;-86
2024/01/15 00:52:10;;;;;;;164.57;86.10;;;;;;;;;;5086937;28;20013;-85
2024/01/15 00:54:35;;;;;;;159.50;85.17;;;;;;;;;;5072010;28;20035;-85
2024/01/15 00:57:01;;;;;;;217.27;109.50;;;;;;;;;;5067577;28;20016;-85
2024/01/15 00:59:26;;;;;;;141.20;75.30;;;;;;;;;;5064559;28;20032;-85
2024/01/15 01:01:52;;;;;;;126.03;67.67;;;;;;;;;;5067369;28;20131;-85
2024/01/15 01:04:17;;;;;;;123.43;63.03;;;;;;;;;;5055795;28;20028;-84
2024/01/15 01:06:42;;;;;;;104.63;52.42;;;;;;;;;;5062335;28;20095;-85
2024/01/15 01:09:08;;;;;;;94.50;44.42;;;;;;;;;;5065568;28;20028;-85
2024/01/15 01:11:33;;;;;;;76.53;41.73;;;;;;;;;;5066771;28;20031;-85
2024/01/15 01:13:58;;;;;;;73.30;38.97;;;;;;;;;;5060783;28;20059;-85
2024/01/15 01:16:24;;;;;;;85.80;43.30;;;;;;;;;;5065241;28;20056;-85
2024/01/15 01:18:49;;;;;;;142.15;71.18;;;;;;;;;;5066082;28;20020;-85
2024/01/15 01:21:14;;;;;;;167.90;95.57;;;;;;;;;;5063349;28;20107;-85
2024/01/15 01:23:40;;;;;;;138.13;69.23;;;;;;;;;;5036144;28;20527;-85
2024/01/15 01:26:05;;;;;;;130.33;67.87;;;;;;;;;;5043472;28;20044;-85
2024/01/15 01:28:30;;;;;;;120.30;67.57;;;;;;;;;;5030487;28;20021;-85
2024/01/15 01:30:55;;;;;;;124.07;62.75;;;;;;;;;;5024113;28;20047;-86
2024/01/15 01:33:21;;;;;;;98.17;52.30;;;;;;;;;;5046213;28;20028;-85
2024/01/15 01:35:47;;;;;;;97.67;50.37;;;;;;;;;;5044502;28;20020;-85
2024/01/15 01:38:12;;;;;;;107.27;55.83;;;;;;;;;;5044679;28;20696;-84
2024/01/15 01:40:38;;;;;;;89.38;47.67;;;;;;;;;;5043848;28;20119;-84
2024/01/15 01:43:04;;;;;;;89.87;49.30;;;;;;;;;;5043994;28;20605;-85
2024/01/15 01:45:29;;;;;;;90.15;51.20;;;;;;;;;;5044268;28;20016;-85
2024/01/15 01:47:54;;;;;;;87.33;47.43;;;;;;;;;;5062424;28;20033;-85
2024/01/15 01:50:20;;;;;;;101.07;53.83;;;;;;;;;;5024589;28;20028;-85
2024/01/15 01:52:45;;;;;;;120.80;58.00;;;;;;;;;;5040757;28;20036;-85
2024/01/15 01:55:12;;;;;;;93.23;48.63;;;;;;;;;;5061940;28;20032;-86
2024/01/15 01:57:38;;;;;;;94.23;48.83;;;;;;;;;;5067094;28;20052;-86
2024/01/15 02:00:04;;;;;;;108.90;54.10;;;;;;;;;;5084986;28;20036;-85
2024/01/15 02:02:30;;;;;;;114.23;60.70;;;;;;;;;;5064484;28;20024;-84
2024/01/15 02:04:55;;;;;;;134.03;75.00;;;;;;;;;;5084995;28;20748;-85
2024/01/15 02:07:21;;;;;;;124.53;66.63;;;;;;;;;;5070987;28;20016;-86
2024/01/15 02:09:46;;;;;;;119.50;62.17;;;;;;;;;;5058631;28;20016;-86
2024/01/15 02:12:12;;;;;;;132.20;72.67;;;;;;;;;;5051147;28;20080;-85
2024/01/15 02:14:37;;;;;;;135.37;74.17;;;;;;;;;;5059424;28;20067;-85
2024/01/15 02:17:02;;;;;;;118.27;65.10;;;;;;;;;;5053489;28;20124;-85
2024/01/15 02:19:28;;;;;;;126.13;71.40;;;;;;;;;;5083652;28;20063;-85
2024/01/15 02:21:53;;;;;;;142.73;72.05;;;;;;;;;;5074287;28;20055;-85
2024/01/15 02:24:18;;;;;;;142.63;73.83;;;;;;;;;;5083676;28;20070;-86
2024/01/15 02:26:44;;;;;;;151.23;82.57;;;;;;;;;;5077105;28;20111;-84
2024/01/15 02:29:09;;;;;;;160.20;88.43;;;;;;;;;;5089415;28;20532;-84
2024/01/15 02:31:35;;;;;;;159.03;89.87;;;;;;;;;;5058006;28;20019;-85
2024/01/15 02:34:01;;;;;;;172.63;91.07;;;;;;;;;;5079711;28;20494;-85
2024/01/15 02:36:26;;;;;;;162.30;83.90;;;;;;;;;;5074116;28;20188;-85
2024/01/15 02:38:51;;;;;;;167.67;88.57;;;;;;;;;;5073340;28;20043;-85
2024/01/15 02:41:17;;;;;;;173.13;93.27;;;;;;;;;;5074159;28;20028;-85
2024/01/15 02:43:42;;;;;;;153.17;82.53;;;;;;;;;;5074113;28;20020;-85
2024/01/15 02:46:07;;;;;;;154.90;82.27;;;;;;;;;;5052993;28;20028;-86
2024/01/15 02:48:34;;;;;;;142.97;76.03;;;;;;;;;;5050890;28;20099;-86
2024/01/15 02:51:00;;;;;;;188.97;93.37;;;;;;;;;;5085408;28;20020;-85
2024/01/15 02:53:25;;;;;;;187.40;93.97;;;;;;;;;;5058242;28;20024;-85
2024/01/15 02:55:50;;;;;;;191.27;94.00;;;;;;;;;;5063849;28;20399;-85
2024/01/15 02:58:16;;;;;;;181.47;93.40;;;;;;;;;;5064653;28;20039;-85
2024/01/15 03:00:42;;;;;;;190.73;112.23;;;;;;;;;;5047705;28;20109;-85
2024/01/15 03:03:07;;;;;;;94.40;48.17;;;;;;;;;;5086802;28;20016;-85
2024/01/15 03:05:33;;;;;;;70.07;38.67;;;;;;;;;;5068217;28;20039;-85
2024/01/15 03:07:58;;;;;;;81.07;44.63;;;;;;;;;;5066987;28;20789;-85
2024/01/15 03:10:24;;;;;;;90.13;48.47;;;;;;;;;;5034766;28;20500;-85
2024/01/15 03:12:49;;;;;;;107.67;58.00;;;;;;;;;;5047615;28;20017;-85
2024/01/15 03:15:14;;;;;;;110.80;56.90;;;;;;;;;;5073009;28;21317;-85
2024/01/15 03:17:41;;;;;;;264.00;94.23;;;;;;;;;;5045447;28;20068;-84
2024/01/15 03:20:07;;;;;;;87.87;46.50;;;;;;;;;;5056794;28;20111;-85
2024/01/15 03:22:32;;;;;;;92.40;48.33;;;;;;;;;;5064269;28;20162;-84
2024/01/15 03:24:57;;;;;;;100.77;55.17;;;;;;;;;;5056629;28;20047;-85
2024/01/15 03:27:23;;;;;;;101.17;55.10;;;;;;;;;;5044352;28;20532;-83
2024/01/15 03:29:48;;;;;;;129.90;68.07;;;;;;;;;;5072638;28;20016;-85
2024/01/15 03:32:15;;;;;;;123.60;63.70;;;;;;;;;;5068444;28;20020;-84
2024/01/15 03:34:40;;;;;;;122.10;63.27;;;;;;;;;;5071625;28;20035;-85
2024/01/15 03:37:06;;;;;;;163.13;85.17;;;;;;;;;;5058121;28;20021;-83
2024/01/15 03:39:31;;;;;;;153.27;80.15;;;;;;;;;;5063459;28;20028;-83
2024/01/15 03:41:57;;;;;;;168.20;69.00;;;;;;;;;;5060032;28;20035;-85
2024/01/15 03:44:22;;;;;;;99.50;33.73;;;;;;;;;;5065164;28;20023;-84
2024/01/15 03:46:48;;;;;;;43.83;22.20;;;;;;;;;;5063510;28;20047;-84
2024/01/15 03:49:13;;;;;;;44.50;23.67;;;;;;;;;;5077655;28;20111;-85
2024/01/15 03:51:38;;;;;;;63.37;31.80;;;;;;;;;;5058814;28;20020;-85
2024/01/15 03:54:05;;;;;;;70.47;34.80;;;;;;;;;;5061982;28;20028;-85
2024/01/15 03:56:30;;;;;;;70.67;37.07;;;;;;;;;;5063702;28;20689;-85
2024/01/15 03:58:56;;;;;;;67.77;35.53;;;;;;;;;;5060547;28;20112;-85
2024/01/15 04:01:21;;;;;;;404.30;98.90;;;;;;;;;;5065890;28;20056;-85
2024/01/15 04:03:46;;;;;;;160.30;44.67;;;;;;;;;;5063500;28;20032;-84
2024/01/15 04:06:12;;;;;;;177.73;54.30;;;;;;;;;;5046714;28;20429;-86
2024/01/15 04:08:37;;;;;;;147.95;47.25;;;;;;;;;;5048436;28;20128;-84
2024/01/15 04:11:02;;;;;;;52.95;26.52;;;;;;;;;;5051701;28;20139;-85
2024/01/15 04:13:28;;;;;;;34.35;17.27;;;;;;;;;;5045487;28;20027;-85
2024/01/15 04:15:54;;;;;;;25.53;14.57;;;;;;;;;;5059013;28;20048;-85
2024/01/15 04:18:19;;;;;;;31.37;20.60;;;;;;;;;;5065805;28;20025;-83
2024/01/15 04:20:44;;;;;;;40.63;24.00;;;;;;;;;;5063571;28;20028;-86
2024/01/15 04:23:10;;;;;;;74.28;36.92;;;;;;;;;;5067327;28;20051;-86
2024/01/15 04:25:35;;;;;;;47.58;24.95;;;;;;;;;;5050690;28;20628;-86
2024/01/15 04:28:00;;;;;;;42.47;22.98;;;;;;;;;;5066494;28;20105;-85
2024/01/15 04:30:26;;;;;;;63.58;35.97;;;;;;;;;;5065594;28;20559;-86
2024/01/15 04:32:51;;;;;;;81.53;43.00;;;;;;;;;;5069184;28;20136;-86
2024/01/15 04:35:16;;;;;;;99.22;48.15;;;;;;;;;;5056534;28;20028;-85
2024/01/15 04:37:42;;;;;;;103.40;54.97;;;;;;;;;;5059678;28;20025;-86
2024/01/15 04:40:07;;;;;;;102.80;57.37;;;;;;;;;;5067928;28;20024;-85
2024/01/15 04:42:33;;;;;;;91.00;52.63;;;;;;;;;;5085304;28;20675;-85
2024/01/15 04:44:58;;;;;;;74.55;44.15;;;;;;;;;;5064269;28;20084;-86
2024/01/15 04:47:23;;;;;;;73.38;40.03;;;;;;;;;;5046467;28;20089;-85
2024/01/15 04:49:49;;;;;;;95.68;58.67;;;;;;;;;;5060969;28;20012;-83
2024/01/15 04:52:14;;;;;;;67.97;39.38;;;;;;;;;;5067024;28;20516;-84
2024/01/15 04:54:39;;;;;;;86.78;44.08;;;;;;;;;;5086959;28;20119;-83
2024/01/15 04:57:05;;;;;;;74.85;40.58;;;;;;;;;;5060807;28;20028;-84
2024/01/15 04:59:30;;;;;;;67.97;37.88;;;;;;;;;;5067991;28;20696;-86
2024/01/15 05:01:56;;;;;;;55.60;31.58;;;;;;;;;;5054105;28;20024;-86
2024/01/15 05:04:21;;;;;;;55.22;31.00;;;;;;;;;;5066984;28;20108;-86
2024/01/15 05:06:46;;;;;;;79.35;45.80;;;;;;;;;;5067124;28;20873;-84
2024/01/15 05:09:13;;;;;;;54.80;33.08;;;;;;;;;;5084423;28;20024;-83
2024/01/15 05:11:39;;;;;;;53.25;32.88;;;;;;;;;;5051744;28;20032;-84
2024/01/15 05:14:04;;;;;;;62.28;35.58;;;;;;;;;;5055512;28;20024;-85
2024/01/15 05:16:30;;;;;;;73.43;41.35;;;;;;;;;;5063071;28;20114;-84
2024/01/15 05:18:55;;;;;;;133.90;81.70;;;;;;;;;;5026882;28;20035;-85
2024/01/15 05:21:20;;;;;;;138.48;73.50;;;;;;;;;;5065714;28;20027;-86
2024/01/15 05:23:46;;;;;;;206.60;108.25;;;;;;;;;;5065743;28;20701;-84
2024/01/15 05:26:11;;;;;;;193.98;93.38;;;;;;;;;;5052107;28;20119;-86
2024/01/15 05:28:36;;;;;;;174.65;79.00;;;;;;;;;;5047664;28;20071;-87
2024/01/15 05:31:03;;;;;;;159.32;61.45;;;;;;;;;;5083651;28;20016;-87
2024/01/15 05:33:28;;;;;;;266.60;112.45;;;;;;;;;;5068501;28;20024;-88
2024/01/15 05:35:54;;;;;;;152.50;69.82;;;;;;;;;;5054300;28;20112;-86
2024/01/15 05:38:21;;;;;;;109.87;53.83;;;;;;;;;;5059870;28;20024;-89
2024/01/15 05:40:47;;;;;;;87.80;43.60;;;;;;;;;;5071751;28;20466;-89
2024/01/15 05:43:12;;;;;;;102.57;56.83;;;;;;;;;;5070965;28;20042;-89
2024/01/15 05:45:38;;;;;;;62.70;36.58;;;;;;;;;;5056895;28;20180;-85
2024/01/15 05:48:04;;;;;;;118.27;71.33;;;;;;;;;;5048322;28;20123;-85
2024/01/15 05:50:29;;;;;;;82.10;50.33;;;;;;;;;;5074845;28;20107;-85
2024/01/15 05:52:54;;;;;;;66.72;40.33;;;;;;;;;;5066955;28;20067;-86
2024/01/15 05:55:20;;;;;;;73.82;43.33;;;;;;;;;;5060999;28;20028;-85
2024/01/15 05:57:45;;;;;;;56.42;32.92;;;;;;;;;;5064787;28;20038;-85
2024/01/15 06:00:11;;;;;;;50.83;29.52;;;;;;;;;;5068032;28;20536;-86
2024/01/15 06:02:39;;;;;;;59.75;37.38;;;;;;;;;;5048354;28;20074;-85
2024/01/15 06:05:05;;;;;;;66.53;38.63;;;;;;;;;;5070179;28;20689;-85
2024/01/15 06:07:30;;;;;;;531.05;210.23;;;;;;;;;;5050136;28;20032;-85
2024/01/15 06:09:56;;;;;;;366.38;162.77;;;;;;;;;;5048287;28;20023;-85
2024/01/15 06:12:22;;;;;;;348.38;137.35;;;;;;;;;;5049070;28;20035;-87
2024/01/15 06:14:48;;;;;;;132.98;65.38;;;;;;;;;;5063442;28;20024;-87
2024/01/15 06:17:14;;;;;;;185.65;86.78;;;;;;;;;;5080401;28;20047;-87
2024/01/15 06:19:39;;;;;;;123.28;60.38;;;;;;;;;;5064108;28;20021;-86
2024/01/15 06:22:04;;;;;;;100.13;50.28;;;;;;;;;;5062249;28;20020;-86
2024/01/15 06:24:30;;;;;;;295.63;129.52;;;;;;;;;;5066584;28;20035;-86
2024/01/15 06:26:55;;;;;;;156.38;70.45;;;;;;;;;;5062740;28;20202;-86
2024/01/15 06:29:20;;;;;;;247.57;124.10;;;;;;;;;;5044838;28;20020;-87
2024/01/15 06:31:46;;;;;;;193.65;107.50;;;;;;;;;;5062570;28;20254;-85
2024/01/15 06:34:11;;;;;;;90.93;53.03;;;;;;;;;;5065027;28;20607;-85
2024/01/15 06:36:37;;;;;;;300.30;154.93;;;;;;;;;;5052049;28;20016;-87
2024/01/15 06:39:03;;;;;;;569.90;321.48;;;;;;;;;;5045371;28;20020;-87
2024/01/15 06:41:28;;;;;;;272.50;121.40;;;;;;;;;;5074856;28;20093;-86
2024/01/15 06:43:54;;;;;;;323.25;139.88;;;;;;;;;;5044666;28;20048;-86
2024/01/15 06:46:20;;;;;;;208.52;95.70;;;;;;;;;;5067055;28;20646;-86
2024/01/15 06:48:45;;;;;;;673.70;309.65;;;;;;;;;;5062737;28;20014;-87
2024/01/15 06:51:10;;;;;;;209.27;102.95;;;;;;;;;;5053446;28;20607;-87
2024/01/15 06:53:35;;;;;;;217.60;120.43;;;;;;;;;;5064796;28;20058;-86
2024/01/15 06:56:01;;;;;;;230.98;126.22;;;;;;;;;;5057520;28;20008;-85
2024/01/15 06:58:26;;;;;;;488.50;213.45;;;;;;;;;;5049064;28;20650;-87
2024/01/15 07:00:51;;;;;;;402.17;188.50;;;;;;;;;;5066950;28;20485;-87
2024/01/15 07:03:17;;;;;;;230.55;124.25;;;;;;;;;;5058833;28;20473;-85
2024/01/15 07:05:42;;;;;;;168.63;107.38;;;;;;;;;;5077665;28;20027;-87
2024/01/15 07:08:07;;;;;;;143.57;103.75;;;;;;;;;;5047230;28;20038;-87
2024/01/15 07:10:33;;;;;;;246.40;141.77;;;;;;;;;;5044825;28;20110;-86
2024/01/15 07:12:58;;;;;;;147.60;93.80;;;;;;;;;;5084216;28;20521;-86
2024/01/15 07:15:24;;;;;;;179.52;104.53;;;;;;;;;;5061010;28;20035;-86
2024/01/15 07:17:49;;;;;;;474.10;172.93;;;;;;;;;;5061440;28;20023;-86
2024/01/15 07:20:15;;;;;;;241.68;116.18;;;;;;;;;;5064743;28;20081;-86
2024/01/15 07:22:40;;;;;;;204.50;101.10;;;;;;;;;;5048627;28;20024;-86
2024/01/15 07:25:06;;;;;;;601.80;326.27;;;;;;;;;;5044991;28;20490;-87
2024/01/15 07:27:32;;;;;;;709.67;315.38;;;;;;;;;;5060763;28;20606;-87
2024/01/15 07:29:58;;;;;;;398.15;197.60;;;;;;;;;;5067141;28;20019;-87
2024/01/15 07:32:23;;;;;;;745.55;315.40;;;;;;;;;;5068685;28;20031;-86
2024/01/15 07:34:49;;;;;;;560.30;233.93;;;;;;;;;;5046955;28;20063;-85
2024/01/15 07:37:14;;;;;;;153.73;80.22;;;;;;;;;;5073166;28;20040;-86
2024/01/15 07:39:40;;;;;;;594.88;289.95;;;;;;;;;;5070355;28;20553;-86
2024/01/15 07:42:05;;;;;;;167.02;99.93;;;;;;;;;;5067764;28;20027;-86
2024/01/15 07:44:30;;;;;;;173.40;99.20;;;;;;;;;;5068027;28;20028;-87
2024/01/15 07:46:56;;;;;;;342.00;179.50;;;;;;;;;;5062100;28;20271;-86
2024/01/15 07:49:22;;;;;;;315.90;168.43;;;;;;;;;;5056417;28;20066;-87
2024/01/15 07:51:48;;;;;;;159.82;102.28;;;;;;;;;;5056963;28;20120;-86
2024/01/15 07:54:14;;;;;;;459.08;250.57;;;;;;;;;;5084313;28;20616;-86
2024/01/15 07:57:04;;;;;;;272.77;151.10;;;;;;;;;;5071905;28;20028;-87
2024/01/15 07:59:30;;;;;;;264.40;141.13;;;;;;;;;;5071338;28;20643;-86
2024/01/15 08:01:55;;;;;;;339.83;165.38;;;;;;;;;;5061646;28;20595;-86
2024/01/15 08:04:21;;;;;;;644.85;302.58;;;;;;;;;;5036910;28;20025;-87
2024/01/15 08:06:47;;;;;;;338.02;158.50;;;;;;;;;;5031671;28;20651;-86
2024/01/15 08:09:12;;;;;;;253.05;129.55;;;;;;;;;;5073257;28;20019;-85
2024/01/15 08:11:43;;;;;;;216.70;130.50;;;;;;;;;;5079123;28;20032;-86
2024/01/15 08:14:13;;;;;;;180.20;108.18;;;;;;;;;;5047501;28;20025;-87
2024/01/15 08:16:39;;;;;;;168.82;104.82;;;;;;;;;;5050802;28;20063;-86
2024/01/15 08:19:04;;;;;;;543.67;261.75;;;;;;;;;;5057038;28;20017;-87
2024/01/15 08:21:32;;;;;;;383.85;183.07;;;;;;;;;;5042371;28;20028;-86
2024/01/15 08:23:58;;;;;;;204.00;107.40;;;;;;;;;;5064166;28;20225;-87
2024/01/15 08:26:23;;;;;;;441.40;222.80;;;;;;;;;;5060920;28;20021;-86
2024/01/15 08:28:49;;;;;;;432.05;248.50;;;;;;;;;;5059374;28;20047;-84
2024/01/15 08:31:14;;;;;;;446.83;261.13;;;;;;;;;;5045559;28;20545;-88
2024/01/15 08:33:39;;;;;;;541.97;317.98;;;;;;;;;;5064566;28;20583;-86
2024/01/15 08:36:05;;;;;;;503.23;298.63;;;;;;;;;;5054273;28;20246;-86
2024/01/15 08:38:30;;;;;;;536.58;325.63;;;;;;;;;;5038182;28;20142;-85
2024/01/15 08:40:58;;;;;;;737.58;477.83;;;;;;;;;;5037822;28;20245;-86
2024/01/15 08:43:24;;;;;;;804.80;527.33;;;;;;;;;;5039360;28;20025;-85
2024/01/15 08:45:49;;;;;;;799.15;530.50;;;;;;;;;;5037042;28;20027;-85
2024/01/15 08:48:17;;;;;;;766.95;517.38;;;;;;;;;;5044550;28;20013;-86
2024/01/15 08:50:45;;;;;;;785.87;527.73;;;;;;;;;;5021126;28;20016;-85
2024/01/15 08:53:11;;;;;;;787.08;539.00;;;;;;;;;;5053366;28;20020;-86
2024/01/15 08:55:39;;;;;;;727.17;520.05;;;;;;;;;;5023870;28;20651;-92
2024/01/15 08:58:06;;;;;;;822.72;564.13;;;;;;;;;;5056496;28;20127;-84
2024/01/15 09:00:35;;;;;;;800.00;553.97;;;;;;;;;;5046577;28;20036;-92
2024/01/15 09:03:00;;;;;;;;;;;;;;;;;;5046965;28;20021;-86
2024/01/15 09:05:35;;;;;;;721.35;486.05;;;;;;;;;;5047166;28;20433;-90
2024/01/15 09:08:00;;;;;;;741.92;480.95;;;;;;;;;;5050197;28;20017;-86
2024/01/15 09:10:28;;;;;;;684.33;421.10;;;;;;;;;;5055607;28;20017;-85
2024/01/15 09:12:53;;;;;;;600.13;362.23;;;;;;;;;;5051295;28;20708;-83
2024/01/15 09:15:19;;;;;;;617.47;365.25;;;;;;;;;;5060897;28;20055;-85
2024/01/15 09:17:46;;;;;;;601.50;359.88;;;;;;;;;;5058142;28;20036;-85
2024/01/15 09:20:11;;;;;;;576.22;343.75;;;;;;;;;;5070781;28;20103;-86
2024/01/15 09:22:42;;;;;;;535.78;317.45;;;;;;;;;;5055473;28;20717;-85
2024/01/15 09:25:09;;;;;;;495.17;280.13;;;;;;;;;;5080555;28;20024;-86
2024/01/15 09:27:35;;;;;;;424.40;225.15;;;;;;;;;;5046131;28;20107;-85
2024/01/15 09:30:00;;;;;;;273.33;142.98;;;;;;;;;;5058056;28;20188;-85
2024/01/15 09:32:25;;;;;;;307.90;153.40;;;;;;;;;;5057302;28;20028;-85
2024/01/15 09:34:51;;;;;;;237.05;129.63;;;;;;;;;;5039167;28;20016;-86
2024/01/15 09:37:16;;;;;;;266.63;147.27;;;;;;;;;;5049131;28;20023;-85
2024/01/15 09:39:41;;;;;;;316.58;175.13;;;;;;;;;;5045725;28;20016;-85
2024/01/15 09:42:07;;;;;;;459.33;266.33;;;;;;;;;;5051103;28;20016;-85
2024/01/15 09:44:33;;;;;;;350.55;173.05;;;;;;;;;;5054304;28;20540;-86
2024/01/15 09:46:59;;;;;;;419.27;236.52;;;;;;;;;;5065665;28;20027;-86
2024/01/15 09:49:24;;;;;;;306.05;160.85;;;;;;;;;;5069529;28;20707;-84
2024/01/15 09:51:50;;;;;;;264.02;149.88;;;;;;;;;;5083415;28;20015;-87
2024/01/15 09:54:17;;;;;;;280.50;143.73;;;;;;;;;;5066424;28;20012;-85
2024/01/15 09:56:44;;;;;;;231.45;128.43;;;;;;;;;;5046165;28;20581;-87
2024/01/15 09:59:10;;;;;;;277.42;145.80;;;;;;;;;;5060834;28;20115;-86
2024/01/15 10:01:36;;;;;;;215.52;120.05;;;;;;;;;;5048027;28;20562;-86
2024/01/15 10:04:02;;;;;;;207.77;122.97;;;;;;;;;;5065542;28;20035;-86
2024/01/15 10:06:30;;;;;;;231.38;131.75;;;;;;;;;;5066651;28;20016;-86
2024/01/15 10:08:57;;;;;;;317.02;160.60;;;;;;;;;;5075973;28;20015;-87
2024/01/15 10:11:23;;;;;;;235.63;128.98;;;;;;;;;;5067308;28;20086;-84
2024/01/15 10:13:52;;;;;;;208.60;122.45;;;;;;;;;;5060179;28;20507;-85
2024/01/15 10:16:19;;;;;;;209.82;120.20;;;;;;;;;;5045491;28;20104;-86
2024/01/15 10:18:45;;;;;;;213.98;122.32;;;;;;;;;;5051854;28;20167;-87
2024/01/15 10:21:11;;;;;;;254.60;143.40;;;;;;;;;;5044653;28;20636;-86
2024/01/15 10:23:36;;;;;;;290.98;161.15;;;;;;;;;;5051568;28;20029;-85
2024/01/15 10:26:03;;;;;;;285.65;154.48;;;;;;;;;;5061130;28;20055;-86
2024/01/15 10:28:30;;;;;;;234.38;139.57;;;;;;;;;;5052203;28;20033;-85
2024/01/15 10:30:57;;;;;;;309.02;165.25;;;;;;;;;;5063499;28;20044;-85
2024/01/15 10:33:25;;;;;;;271.40;152.75;;;;;;;;;;5055825;28;20596;-84
2024/01/15 10:35:50;;;;;;;324.47;172.07;;;;;;;;;;5046288;28;20025;-86
2024/01/15 10:38:17;;;;;;;359.48;200.27;;;;;;;;;;5050415;28;20078;-84
2024/01/15 10:40:43;;;;;;;352.15;200.40;;;;;;;;;;5049261;28;20021;-84
2024/01/15 10:43:08;;;;;;;325.30;183.32;;;;;;;;;;5045967;28;20144;-85
2024/01/15 10:45:35;;;;;;;251.55;146.38;;;;;;;;;;5047608;28;20071;-84
2024/01/15 10:48:02;;;;;;;232.60;121.75;;;;;;;;;;5051988;28;20044;-86
2024/01/15 10:50:29;;;;;;;160.50;102.85;;;;;;;;;;5050372;28;20017;-86
2024/01/15 10:52:55;;;;;;;178.68;102.38;;;;;;;;;;5047227;28;20856;-85
2024/01/15 10:55:20;;;;;;;147.52;81.82;;;;;;;;;;5070251;28;20017;-85
2024/01/15 10:57:48;;;;;;;200.27;99.72;;;;;;;;;;5057815;28;20025;-85
2024/01/15 11:00:14;;;;;;;121.97;69.28;;;;;;;;;;5049544;28;20021;-85
2024/01/15 11:02:40;;;;;;;117.82;58.63;;;;;;;;;;5049905;28;20001;-86
2024/01/15 11:05:06;;;;;;;104.68;52.13;;;;;;;;;;5059610;28;20111;-85
2024/01/15 11:07:31;;;;;;;95.30;50.00;;;;;;;;;;5064018;28;20044;-86
2024/01/15 11:09:59;;;;;;;92.00;49.95;;;;;;;;;;5051118;28;20021;-86
2024/01/15 11:12:25;;;;;;;98.85;48.30;;;;;;;;;;5052538;28;20166;-87
2024/01/15 11:14:50;;;;;;;87.57;43.72;;;;;;;;;;5050926;28;20026;-83
2024/01/15 11:17:17;;;;;;;172.98;73.90;;;;;;;;;;5068630;28;20128;-87
2024/01/15 11:19:42;;;;;;;62.83;41.90;;;;;;;;;;5062731;28;20512;-86
2024/01/15 11:22:31;;;;;;;79.93;48.53;;;;;;;;;;5064409;28;20075;-86
2024/01/15 11:24:56;;;;;;;188.60;98.77;;;;;;;;;;5038628;28;20024;-86
2024/01/15 11:27:44;;;;;;;183.55;99.53;;;;;;;;;;5049935;28;20360;-88
2024/01/15 11:30:13;;;;;;;165.13;91.45;;;;;;;;;;5040477;28;20031;-85
2024/01/15 11:32:41;;;;;;;159.40;85.80;;;;;;;;;;5056994;28;20009;-85
2024/01/15 11:35:08;;;;;;;148.23;81.28;;;;;;;;;;5052372;28;20183;-84
2024/01/15 11:37:54;;;;;;;182.68;91.78;;;;;;;;;;5036555;28;20674;-85
2024/01/15 11:40:42;;;;;;;211.85;111.85;;;;;;;;;;5056477;28;20031;-86
2024/01/15 11:43:09;;;;;;;213.15;115.68;;;;;;;;;;5042870;28;20027;-87
2024/01/15 11:45:34;;;;;;;239.75;132.73;;;;;;;;;;5049694;28;20021;-87
2024/01/15 11:48:05;;;;;;;147.13;88.68;;;;;;;;;;5021782;28;20031;-87
2024/01/15 11:50:31;;;;;;;112.75;70.97;;;;;;;;;;5042654;28;20063;-85
2024/01/15 11:53:01;;;;;;;304.55;150.98;;;;;;;;;;5037944;28;20051;-85
2024/01/15 11:55:26;;;;;;;146.88;94.60;;;;;;;;;;5038045;28;20021;-85
2024/01/15 11:57:54;;;;;;;185.38;116.28;;;;;;;;;;5060494;28;20020;-85
2024/01/15 12:00:19;;;;;;;237.25;145.85;;;;;;;;;;5064736;28;20798;-86
2024/01/15 12:02:45;;;;;;;303.00;178.93;;;;;;;;;;5056690;28;20048;-88
2024/01/15 12:05:12;;;;;;;356.65;215.88;;;;;;;;;;5041257;28;20129;-86
2024/01/15 12:07:40;;;;;;;367.05;218.73;;;;;;;;;;5061014;28;20605;-86
2024/01/15 12:10:12;;;;;;;210.20;124.72;;;;;;;;;;5067993;28;20013;-85
2024/01/15 12:12:50;;;;;;;193.85;114.68;;;;;;;;;;5064395;28;20039;-86
2024/01/15 12:15:15;;;;;;;170.95;100.65;;;;;;;;;;5036926;28;20512;-86
2024/01/15 12:17:41;;;;;;;221.18;117.80;;;;;;;;;;5062945;28;20044;-87
2024/01/15 12:20:06;;;;;;;131.60;74.60;;;;;;;;;;5068505;28;20020;-86
2024/01/15 12:22:33;;;;;;;112.95;65.78;;;;;;;;;;5057822;28;20421;-86
2024/01/15 12:24:58;;;;;;;86.18;47.35;;;;;;;;;;5031059;28;20636;-86
2024/01/15 12:27:24;;;;;;;100.22;57.88;;;;;;;;;;5052536;28;20029;-87
2024/01/15 12:29:49;;;;;;;87.53;50.63;;;;;;;;;;5044581;28;20044;-86
2024/01/15 12:32:15;;;;;;;103.25;57.80;;;;;;;;;;5053929;28;20051;-86
2024/01/15 12:34:40;;;;;;;100.00;61.08;;;;;;;;;;5052460;28;20097;-86
2024/01/15 12:37:06;;;;;;;76.60;47.45;;;;;;;;;;5049301;28;20620;-85
2024/01/15 12:39:35;;;;;;;106.03;66.13;;;;;;;;;;5062695;28;20021;-86
2024/01/15 12:42:01;;;;;;;62.53;40.65;;;;;;;;;;5062566;28;20013;-86
2024/01/15 12:44:27;;;;;;;84.60;47.65;;;;;;;;;;5038152;28;20127;-86
2024/01/15 12:46:52;;;;;;;43.53;27.38;;;;;;;;;;5055852;28;20135;-87
2024/01/15 12:49:17;;;;;;;82.50;55.60;;;;;;;;;;5082724;28;20009;-87
2024/01/15 12:51:42;;;;;;;59.20;39.70;;;;;;;;;;5040789;28;20017;-86
2024/01/15 12:54:08;;;;;;;65.40;39.65;;;;;;;;;;5044858;28;20478;-87
2024/01/15 12:56:33;;;;;;;49.75;28.05;;;;;;;;;;5036920;28;20119;-86
2024/01/15 12:58:59;;;;;;;63.92;38.13;;;;;;;;;;5056787;28;20100;-87
2024/01/15 13:01:24;;;;;;;52.30;32.25;;;;;;;;;;5043580;28;20029;-87
2024/01/15 13:03:49;;;;;;;123.88;56.40;;;;;;;;;;5053734;28;20170;-87
2024/01/15 13:06:15;;;;;;;63.25;34.88;;;;;;;;;;5036761;28;20090;-87
2024/01/15 13:08:40;;;;;;;43.00;26.02;;;;;;;;;;5039728;28;20643;-86
2024/01/15 13:11:06;;;;;;;45.45;29.23;;;;;;;;;;5041728;28;20028;-86
2024/01/15 13:13:34;;;;;;;30.73;20.02;;;;;;;;;;5050267;28;20532;-86
2024/01/15 13:15:59;;;;;;;30.70;20.13;;;;;;;;;;5044218;28;20044;-86
2024/01/15 13:18:25;;;;;;;37.30;24.70;;;;;;;;;;5041462;28;20029;-94
2024/01/15 13:20:50;;;;;;;59.08;35.20;;;;;;;;;;5017560;28;20044;-86
2024/01/15 13:23:16;;;;;;;50.00;31.63;;;;;;;;;;5056084;28;20040;-88
2024/01/15 13:25:42;;;;;;;41.40;28.40;;;;;;;;;;5043817;28;20082;-91
2024/01/15 13:28:08;;;;;;;51.72;34.45;;;;;;;;;;5049025;28;20079;-89
2024/01/15 13:30:33;;;;;;;78.78;48.15;;;;;;;;;;5064617;28;20016;-88
2024/01/15 13:33:03;;;;;;;72.03;43.28;;;;;;;;;;5072047;28;20016;-87
2024/01/15 13:35:29;;;;;;;75.45;47.03;;;;;;;;;;5045011;28;20056;-87
2024/01/15 13:37:54;;;;;;;72.60;47.92;;;;;;;;;;5041152;28;20055;-88
2024/01/15 13:40:20;;;;;;;87.88;61.35;;;;;;;;;;5038702;28;20749;-88
2024/01/15 13:42:46;;;;;;;128.40;75.40;;;;;;;;;;5047351;28;20021;-88
2024/01/15 13:45:15;;;;;;;145.20;86.40;;;;;;;;;;5027305;28;20577;-88
2024/01/15 13:47:42;;;;;;;114.00;68.60;;;;;;;;;;5056181;28;20013;-90
2024/01/15 13:50:07;;;;;;;232.65;130.93;;;;;;;;;;5062323;28;20024;-87
2024/01/15 13:52:32;;;;;;;46.58;30.27;;;;;;;;;;5055257;28;20020;-89
2024/01/15 13:54:58;;;;;;;87.55;56.10;;;;;;;;;;5043971;28;20021;-89
2024/01/15 13:57:23;;;;;;;68.05;44.80;;;;;;;;;;5044829;28;20062;-90